KNMCAPIT4 Weather Reports


Display with metric or nautical units.
time (UTC)temp
F
wind
direction
speed
MPH
gust
MPH
rain 1hr
in
rain 24hr
in
rain mn
in
humidity
%
barometer
mb
20220706220508 70 234 2.0 5.0 0.00 0.02 0.02 45 1012.5
20220706215608 70 53 3.0 7.0 0.00 0.02 0.02 46 1012.1
20220706214708 70 356 3.0 7.0 0.00 0.02 0.02 45 1012.1
20220706213808 70 54 4.0 8.0 0.00 0.02 0.02 47 1012.4
20220706212908 70 91 9.0 17.0 0.00 0.02 0.02 46 1012.6
20220706212008 70 95 7.0 17.0 0.00 0.02 0.02 44 1012.5
20220706211109 69 116 6.0 11.0 0.00 0.02 0.02 46 1012.4
20220706210208 69 93 6.0 12.0 0.00 0.02 0.02 51 1012.1
20220706205308 69 96 5.0 11.0 0.00 0.02 0.02 52 1012.1
20220706204408 69 110 8.0 15.0 0.00 0.02 0.02 53 1012.0
20220706203508 69 108 13.0 22.0 0.00 0.02 0.02 51 1012.2
20220706202608 71 112 16.0 25.0 0.00 0.02 0.02 44 1012.1
20220706201708 77 120 7.0 16.0 0.00 0.02 0.02 33 1012.2
20220706200808 78 216 5.0 10.0 0.00 0.02 0.02 32 1011.9
20220706195908 78 216 6.0 10.0 0.00 0.02 0.02 32 1012.1
20220706195008 77 224 7.0 11.0 0.00 0.02 0.02 32 1012.0
20220706194108 78 209 7.0 15.0 0.00 0.02 0.02 31 1012.2
20220706193208 78 236 10.0 17.0 0.00 0.02 0.02 31 1012.3
20220706192308 79 222 9.0 15.0 0.00 0.02 0.02 33 1012.4
20220706191408 77 210 9.0 14.0 0.00 0.02 0.02 33 1012.6
20220706190508 78 213 9.0 15.0 0.00 0.02 0.02 34 1012.4
20220706185608 79 216 10.0 18.0 0.00 0.02 0.02 33 1012.7
20220706184708 78 226 11.0 18.0 0.00 0.02 0.02 32 1012.7
20220706183808 78 220 9.0 16.0 0.01 0.02 0.02 34 1012.7
20220706182908 79 212 9.0 16.0 0.01 0.02 0.02 34 1012.8
20220706182008 78 211 9.0 13.0 0.01 0.02 0.02 37 1013.0
20220706181108 76 247 12.0 15.0 0.01 0.02 0.02 36 1013.1
20220706180208 78 218 10.0 21.0 0.01 0.02 0.02 36 1013.2
20220706175308 77 229 10.0 16.0 0.02 0.02 0.02 36 1013.1
20220706174408 76 244 13.0 21.0 0.02 0.02 0.02 38 1013.3
20220706173508 76 242 12.0 21.0 0.01 0.01 0.01 37 1013.4
20220706172608 77 236 12.0 20.0 0.01 0.01 0.01 37 1013.4
20220706171708 77 226 10.0 17.0 0.01 0.01 0.01 40 1013.4
20220706170808 76 216 11.0 17.0 0.01 0.01 0.01 40 1013.6
20220706165908 76 242 12.0 18.0 0.01 0.01 0.01 40 1013.4
20220706165008 75 234 11.0 18.0 0.00 0.00 0.00 40 1013.5
20220706164108 75 200 9.0 16.0 0.00 0.00 0.00 40 1013.5
20220706163208 75 229 11.0 18.0 0.00 0.00 0.00 39 1013.5
20220706162308 75 224 10.0 19.0 0.00 0.00 0.00 40 1013.5
20220706161407 75 234 10.0 18.0 0.00 0.00 0.00 41 1013.5
20220706160508 74 219 11.0 19.0 0.00 0.01 0.00 43 1013.5
20220706155607 73 248 11.0 19.0 0.00 0.01 0.00 43 1013.6
20220706154707 72 253 14.0 22.0 0.00 0.01 0.00 45 1013.7
20220706153808 72 244 12.0 20.0 0.00 0.01 0.00 47 1013.9
20220706152908 72 240 12.0 18.0 0.00 0.01 0.00 51 1013.6
20220706152007 72 254 10.0 15.0 0.00 0.01 0.00 52 1013.8
20220706151108 72 236 9.0 15.0 0.00 0.01 0.00 52 1013.8
20220706150208 71 240 10.0 15.0 0.00 0.01 0.00 52 1013.8
20220706145308 71 243 9.0 16.0 0.00 0.01 0.00 53 1013.8
20220706144408 70 232 8.0 13.0 0.00 0.01 0.00 54 1013.7
20220706143508 70 233 9.0 14.0 0.00 0.01 0.00 54 1013.8
20220706142607 69 228 9.0 17.0 0.00 0.01 0.00 55 1013.7
20220706141708 69 218 9.0 14.0 0.00 0.01 0.00 56 1013.6
20220706140807 68 244 8.0 13.0 0.00 0.01 0.00 59 1013.5
20220706135907 67 247 7.0 13.0 0.00 0.01 0.00 60 1013.5
20220706135007 67 253 7.0 14.0 0.00 0.01 0.00 60 1013.4
20220706134107 66 237 8.0 13.0 0.00 0.01 0.00 60 1013.4
20220706133207 66 243 7.0 13.0 0.00 0.01 0.00 60 1013.6
20220706132307 66 266 4.0 9.0 0.00 0.01 0.00 61 1013.5
20220706131407 64 141 3.0 4.0 0.00 0.01 0.00 63 1013.6
20220706130507 64 188 3.0 6.0 0.00 0.01 0.00 63 1013.3
20220706125607 64 236 4.0 10.0 0.00 0.01 0.00 62 1013.3
20220706124707 64 264 7.0 11.0 0.00 0.01 0.00 62 1013.2
20220706123807 63 257 2.0 11.0 0.00 0.01 0.00 69 1013.1
20220706122907 62 281 1.0 3.0 0.00 0.01 0.00 69 1013.0
20220706122007 62 270 1.0 4.0 0.00 0.01 0.00 68 1013.0
20220706121107 62 255 4.0 4.0 0.00 0.01 0.00 69 1012.9
20220706120207 61 268 3.0 4.0 0.00 0.01 0.00 69 1012.7
20220706115307 61 250 3.0 4.0 0.00 0.01 0.00 70 1012.6
20220706114407 60 259 1.0 3.0 0.00 0.01 0.00 70 1012.5
20220706113507 60 223 1.0 2.0 0.00 0.01 0.00 68 1012.5
20220706112607 62 248 0.0 2.0 0.00 0.01 0.00 66 1012.4
20220706111707 63 234 1.0 3.0 0.00 0.01 0.00 65 1012.4
20220706110807 63 193 2.0 3.0 0.00 0.01 0.00 64 1012.4
20220706105907 63 243 2.0 6.0 0.00 0.01 0.00 64 1012.3
20220706105007 64 264 5.0 7.0 0.00 0.01 0.00 61 1012.4
20220706104107 63 263 5.0 8.0 0.00 0.01 0.00 66 1011.9
20220706103207 63 238 3.0 7.0 0.00 0.01 0.00 69 1012.0
20220706102307 63 243 3.0 4.0 0.00 0.01 0.00 68 1012.0
20220706101407 62 236 3.0 4.0 0.00 0.01 0.00 69 1012.0
20220706100507 62 228 2.0 4.0 0.00 0.01 0.00 71 1012.0
20220706095607 61 250 1.0 4.0 0.00 0.01 0.00 71 1012.0
20220706094708 60 273 1.0 2.0 0.00 0.01 0.00 70 1011.9
20220706093807 61 340 0.0 2.0 0.00 0.01 0.00 68 1011.9
20220706092907 62 290 1.0 3.0 0.00 0.01 0.00 66 1011.9
20220706092007 63 228 2.0 3.0 0.00 0.01 0.00 65 1011.6
20220706091107 63 209 2.0 4.0 0.00 0.01 0.00 67 1011.8
20220706090207 62 250 2.0 4.0 0.00 0.01 0.00 70 1011.7
20220706085307 60 197 2.0 4.0 0.00 0.01 0.00 70 1011.7
20220706084407 60 230 1.0 3.0 0.00 0.01 0.00 71 1011.6
20220706083507 58 281 1.0 3.0 0.00 0.01 0.00 73 1011.4
20220706082607 57 299 0.0 2.0 0.00 0.01 0.00 73 1011.7
20220706081707 57 287 1.0 3.0 0.00 0.02 0.00 73 1011.7
20220706080807 58 304 0.0 2.0 0.00 0.02 0.00 72 1011.4
20220706075907 58 192 1.0 4.0 0.00 0.02 0.00 71 1011.3
20220706075007 59 256 2.0 4.0 0.00 0.02 0.00 71 1011.3
20220706074107 58 267 1.0 3.0 0.00 0.04 0.00 70 1011.3
20220706073207 59 256 2.0 4.0 0.00 0.04 0.00 70 1011.2
20220706072307 60 254 2.0 4.0 0.00 0.04 0.00 68 1011.0
20220706071407 60 260 3.0 5.0 0.00 0.04 0.00 67 1011.3
20220706070508 60 269 4.0 7.0 0.00 0.04 0.00 67 1011.4
20220706065606 60 242 3.0 7.0 0.00 0.04 0.00 68 1011.3
20220706064706 60 263 2.0 4.0 0.00 0.04 0.00 66 1011.4
20220706063807 61 243 3.0 5.0 0.00 0.04 0.00 65 1011.5
20220706062906 61 254 3.0 4.0 0.00 0.04 0.00 66 1011.4
20220706062006 60 256 3.0 5.0 0.00 0.04 0.00 66 1011.6
20220706061107 60 266 3.0 4.0 0.00 0.04 0.00 67 1011.4
20220706060206 60 245 3.0 4.0 0.00 0.04 0.00 67 1011.5
20220706055307 61 259 3.0 5.0 0.00 0.04 0.04 66 1011.8
20220706054406 61 267 4.0 8.0 0.00 0.04 0.04 65 1011.7
20220706053506 61 250 3.0 5.0 0.00 0.04 0.04 66 1011.6
20220706052607 61 258 3.0 5.0 0.00 0.04 0.04 65 1011.4
20220706051706 62 274 3.0 7.0 0.00 0.04 0.04 65 1011.7
20220706050806 62 263 2.0 4.0 0.00 0.04 0.04 65 1011.7
20220706045907 62 277 1.0 2.0 0.00 0.04 0.04 63 1011.6
20220706045007 63 289 1.0 4.0 0.00 0.04 0.04 61 1011.5
20220706044106 64 266 3.0 5.0 0.00 0.04 0.04 57 1011.4
20220706043206 64 270 3.0 4.0 0.00 0.04 0.04 57 1011.4
20220706042306 65 261 3.0 4.0 0.00 0.04 0.04 57 1011.7
20220706041406 64 261 3.0 7.0 0.00 0.04 0.04 59 1011.5
20220706040506 64 270 4.0 7.0 0.00 0.04 0.04 58 1011.1
20220706035606 64 267 1.0 4.0 0.00 0.04 0.04 59 1011.3
20220706034706 65 270 1.0 4.0 0.00 0.06 0.04 58 1011.3
20220706033806 65 270 2.0 4.0 0.00 0.06 0.04 56 1011.1
20220706032906 66 284 2.0 3.0 0.00 0.06 0.04 54 1011.1
20220706032006 67 269 3.0 5.0 0.00 0.06 0.04 52 1010.9
20220706031106 68 267 3.0 4.0 0.00 0.06 0.04 51 1010.7
20220706030206 68 281 3.0 4.0 0.00 0.06 0.04 51 1010.5
20220706025306 69 287 2.0 3.0 0.00 0.06 0.04 50 1010.5
20220706024406 70 314 1.0 3.0 0.00 0.06 0.04 47 1010.3
20220706023506 72 270 0.0 2.0 0.00 0.06 0.04 42 1010.1
20220706022606 73 249 2.0 4.0 0.00 0.06 0.04 40 1010.2
20220706021706 74 256 1.0 5.0 0.00 0.06 0.04 39 1009.9
20220706020806 75 258 2.0 5.0 0.00 0.06 0.04 35 1009.7
20220706015906 76 223 3.0 8.0 0.00 0.06 0.04 34 1009.8
20220706015006 77 184 6.0 11.0 0.00 0.06 0.04 33 1009.8
20220706014106 77 168 7.0 10.0 0.00 0.06 0.04 33 1009.7
20220706013206 78 183 5.0 11.0 0.00 0.06 0.04 32 1009.7
20220706012306 78 169 6.0 13.0 0.00 0.06 0.04 32 1009.3
20220706011406 78 149 6.0 9.0 0.00 0.06 0.04 32 1009.5
20220706010506 78 165 9.0 15.0 0.00 0.06 0.04 32 1009.3
20220706005606 78 154 10.0 16.0 0.00 0.06 0.04 32 1009.3
20220706004706 79 150 9.0 15.0 0.00 0.06 0.04 31 1009.4
20220706003806 79 155 9.0 16.0 0.00 0.06 0.04 31 1008.9
20220706002906 79 161 9.0 17.0 0.00 0.06 0.04 31 1009.0
20220706002006 79 159 10.0 17.0 0.00 0.06 0.04 31 1009.1
20220706001106 79 208 8.0 15.0 0.00 0.06 0.04 31 1009.0
20220706000206 80 208 9.0 17.0 0.00 0.06 0.04 31 1009.0
20220705235306 80 153 10.0 17.0 0.00 0.06 0.04 31 1008.9
20220705234406 80 212 9.0 17.0 0.00 0.06 0.04 31 1008.9
20220705233506 80 190 11.0 19.0 0.00 0.06 0.04 31 1009.0
20220705232606 79 210 10.0 17.0 0.00 0.06 0.04 33 1008.9
20220705231706 78 226 10.0 17.0 0.00 0.06 0.04 35 1009.0
20220705230806 78 190 9.0 17.0 0.00 0.06 0.04 33 1009.2
20220705225906 78 187 7.0 13.0 0.00 0.06 0.04 33 1009.3
20220705225006 78 214 9.0 17.0 0.00 0.06 0.04 33 1009.3
20220705224106 79 233 10.0 17.0 0.00 0.06 0.04 34 1009.5
20220705223206 80 238 10.0 18.0 0.00 0.06 0.04 31 1009.6
20220705222306 78 218 8.0 13.0 0.00 0.06 0.04 33 1010.0
20220705221406 79 206 9.0 15.0 0.00 0.06 0.04 34 1010.0